sensor_id;sensor_type;location;lat;lon;timestamp;P1;durP1;ratioP1;P2;durP2;ratioP2
7289;SDS011;63176;52.678;13.250;2023-04-24T00:00:45;3.20;;;2.80;;
7289;SDS011;63176;52.678;13.250;2023-04-24T00:03:11;3.83;;;2.85;;
7289;SDS011;63176;52.678;13.250;2023-04-24T00:05:38;3.30;;;3.00;;
7289;SDS011;63176;52.678;13.250;2023-04-24T00:08:05;5.50;;;3.35;;
7289;SDS011;63176;52.678;13.250;2023-04-24T00:10:31;4.50;;;3.20;;
7289;SDS011;63176;52.678;13.250;2023-04-24T00:12:57;3.70;;;3.40;;
7289;SDS011;63176;52.678;13.250;2023-04-24T00:15:22;8.20;;;3.53;;
7289;SDS011;63176;52.678;13.250;2023-04-24T00:17:48;5.03;;;3.90;;
7289;SDS011;63176;52.678;13.250;2023-04-24T00:20:14;3.90;;;2.73;;
7289;SDS011;63176;52.678;13.250;2023-04-24T00:22:39;3.77;;;3.17;;
7289;SDS011;63176;52.678;13.250;2023-04-24T00:25:05;3.80;;;3.10;;
7289;SDS011;63176;52.678;13.250;2023-04-24T00:27:32;5.57;;;2.90;;
7289;SDS011;63176;52.678;13.250;2023-04-24T00:29:57;4.60;;;3.20;;
7289;SDS011;63176;52.678;13.250;2023-04-24T00:32:23;3.50;;;2.93;;
7289;SDS011;63176;52.678;13.250;2023-04-24T00:34:48;4.30;;;3.20;;
7289;SDS011;63176;52.678;13.250;2023-04-24T00:37:14;4.93;;;2.77;;
7289;SDS011;63176;52.678;13.250;2023-04-24T00:39:40;3.33;;;3.03;;
7289;SDS011;63176;52.678;13.250;2023-04-24T00:42:06;5.13;;;3.60;;
7289;SDS011;63176;52.678;13.250;2023-04-24T00:44:33;4.70;;;3.17;;
7289;SDS011;63176;52.678;13.250;2023-04-24T00:46:59;3.53;;;3.20;;
7289;SDS011;63176;52.678;13.250;2023-04-24T00:49:26;2.97;;;2.70;;
7289;SDS011;63176;52.678;13.250;2023-04-24T00:51:52;6.23;;;3.10;;
7289;SDS011;63176;52.678;13.250;2023-04-24T00:54:18;5.28;;;3.95;;
7289;SDS011;63176;52.678;13.250;2023-04-24T00:56:44;2.83;;;2.60;;
7289;SDS011;63176;52.678;13.250;2023-04-24T00:59:11;3.75;;;3.00;;
7289;SDS011;63176;52.678;13.250;2023-04-24T01:01:37;3.07;;;2.77;;
7289;SDS011;63176;52.678;13.250;2023-04-24T01:04:07;3.65;;;3.10;;
7289;SDS011;63176;52.678;13.250;2023-04-24T01:06:34;4.07;;;2.90;;
7289;SDS011;63176;52.678;13.250;2023-04-24T01:09:03;4.27;;;3.87;;
7289;SDS011;63176;52.678;13.250;2023-04-24T01:11:29;2.85;;;2.65;;
7289;SDS011;63176;52.678;13.250;2023-04-24T01:13:55;4.90;;;2.80;;
7289;SDS011;63176;52.678;13.250;2023-04-24T01:16:21;3.85;;;3.47;;
7289;SDS011;63176;52.678;13.250;2023-04-24T01:18:48;3.28;;;2.70;;
7289;SDS011;63176;52.678;13.250;2023-04-24T01:21:15;3.70;;;3.40;;
7289;SDS011;63176;52.678;13.250;2023-04-24T01:23:44;4.55;;;3.40;;
7289;SDS011;63176;52.678;13.250;2023-04-24T01:26:11;4.60;;;3.15;;
7289;SDS011;63176;52.678;13.250;2023-04-24T01:28:38;4.97;;;3.10;;
7289;SDS011;63176;52.678;13.250;2023-04-24T01:31:03;4.00;;;3.53;;
7289;SDS011;63176;52.678;13.250;2023-04-24T01:33:29;4.60;;;3.20;;
7289;SDS011;63176;52.678;13.250;2023-04-24T01:35:55;2.93;;;2.50;;
7289;SDS011;63176;52.678;13.250;2023-04-24T01:38:21;4.10;;;3.70;;
7289;SDS011;63176;52.678;13.250;2023-04-24T01:40:47;4.10;;;3.20;;
7289;SDS011;63176;52.678;13.250;2023-04-24T01:43:12;4.03;;;3.30;;
7289;SDS011;63176;52.678;13.250;2023-04-24T01:45:38;4.63;;;3.37;;
7289;SDS011;63176;52.678;13.250;2023-04-24T01:48:04;4.43;;;3.53;;
7289;SDS011;63176;52.678;13.250;2023-04-24T01:50:30;3.83;;;3.40;;
7289;SDS011;63176;52.678;13.250;2023-04-24T01:52:56;5.23;;;3.50;;
7289;SDS011;63176;52.678;13.250;2023-04-24T01:55:21;5.60;;;4.20;;
7289;SDS011;63176;52.678;13.250;2023-04-24T01:57:47;4.00;;;3.63;;
7289;SDS011;63176;52.678;13.250;2023-04-24T02:00:13;5.65;;;4.15;;
7289;SDS011;63176;52.678;13.250;2023-04-24T02:02:39;4.90;;;4.00;;
7289;SDS011;63176;52.678;13.250;2023-04-24T02:05:06;5.50;;;3.25;;
7289;SDS011;63176;52.678;13.250;2023-04-24T02:07:33;3.90;;;3.40;;
7289;SDS011;63176;52.678;13.250;2023-04-24T02:09:58;6.73;;;4.10;;
7289;SDS011;63176;52.678;13.250;2023-04-24T02:12:24;4.60;;;4.00;;
7289;SDS011;63176;52.678;13.250;2023-04-24T02:14:50;5.70;;;3.57;;
7289;SDS011;63176;52.678;13.250;2023-04-24T02:17:15;4.17;;;3.73;;
7289;SDS011;63176;52.678;13.250;2023-04-24T02:19:41;3.47;;;3.17;;
7289;SDS011;63176;52.678;13.250;2023-04-24T02:22:07;8.43;;;3.57;;
7289;SDS011;63176;52.678;13.250;2023-04-24T02:24:33;4.23;;;3.77;;
7289;SDS011;63176;52.678;13.250;2023-04-24T02:26:58;3.23;;;3.03;;
7289;SDS011;63176;52.678;13.250;2023-04-24T02:29:25;4.45;;;3.45;;
7289;SDS011;63176;52.678;13.250;2023-04-24T02:31:50;4.00;;;3.57;;
7289;SDS011;63176;52.678;13.250;2023-04-24T02:34:16;4.30;;;3.90;;
7289;SDS011;63176;52.678;13.250;2023-04-24T02:36:41;4.00;;;3.50;;
7289;SDS011;63176;52.678;13.250;2023-04-24T02:39:07;5.37;;;3.67;;
7289;SDS011;63176;52.678;13.250;2023-04-24T02:41:33;4.90;;;3.97;;
7289;SDS011;63176;52.678;13.250;2023-04-24T02:43:58;3.47;;;3.17;;
7289;SDS011;63176;52.678;13.250;2023-04-24T02:46:24;6.20;;;3.87;;
7289;SDS011;63176;52.678;13.250;2023-04-24T02:48:50;4.80;;;3.95;;
7289;SDS011;63176;52.678;13.250;2023-04-24T02:51:16;4.70;;;3.50;;
7289;SDS011;63176;52.678;13.250;2023-04-24T02:53:42;4.20;;;3.80;;
7289;SDS011;63176;52.678;13.250;2023-04-24T02:56:07;6.13;;;4.23;;
7289;SDS011;63176;52.678;13.250;2023-04-24T02:58:33;4.27;;;3.77;;
7289;SDS011;63176;52.678;13.250;2023-04-24T03:00:58;5.40;;;4.03;;
7289;SDS011;63176;52.678;13.250;2023-04-24T03:03:25;5.60;;;3.97;;
7289;SDS011;63176;52.678;13.250;2023-04-24T03:05:50;5.10;;;3.97;;
7289;SDS011;63176;52.678;13.250;2023-04-24T03:08:16;5.57;;;4.10;;
7289;SDS011;63176;52.678;13.250;2023-04-24T03:10:42;4.90;;;4.10;;
7289;SDS011;63176;52.678;13.250;2023-04-24T03:13:08;4.20;;;3.70;;
7289;SDS011;63176;52.678;13.250;2023-04-24T03:15:33;4.30;;;3.77;;
7289;SDS011;63176;52.678;13.250;2023-04-24T03:17:59;4.57;;;4.07;;
7289;SDS011;63176;52.678;13.250;2023-04-24T03:20:25;8.00;;;4.27;;
7289;SDS011;63176;52.678;13.250;2023-04-24T03:22:51;6.13;;;4.07;;
7289;SDS011;63176;52.678;13.250;2023-04-24T03:25:17;4.30;;;3.67;;
7289;SDS011;63176;52.678;13.250;2023-04-24T03:27:42;4.00;;;3.60;;
7289;SDS011;63176;52.678;13.250;2023-04-24T03:30:08;5.17;;;4.03;;
7289;SDS011;63176;52.678;13.250;2023-04-24T03:32:34;4.27;;;3.67;;
7289;SDS011;63176;52.678;13.250;2023-04-24T03:34:59;4.20;;;3.80;;
7289;SDS011;63176;52.678;13.250;2023-04-24T03:37:25;3.90;;;3.50;;
7289;SDS011;63176;52.678;13.250;2023-04-24T03:39:51;5.20;;;3.83;;
7289;SDS011;63176;52.678;13.250;2023-04-24T03:42:17;5.00;;;3.90;;
7289;SDS011;63176;52.678;13.250;2023-04-24T03:44:43;4.13;;;3.73;;
7289;SDS011;63176;52.678;13.250;2023-04-24T03:47:08;4.30;;;3.53;;
7289;SDS011;63176;52.678;13.250;2023-04-24T03:49:34;4.60;;;3.80;;
7289;SDS011;63176;52.678;13.250;2023-04-24T03:52:00;8.13;;;3.85;;
7289;SDS011;63176;52.678;13.250;2023-04-24T03:54:26;4.87;;;3.67;;
7289;SDS011;63176;52.678;13.250;2023-04-24T03:56:52;4.47;;;4.07;;
7289;SDS011;63176;52.678;13.250;2023-04-24T03:59:17;3.73;;;3.43;;
7289;SDS011;63176;52.678;13.250;2023-04-24T04:01:43;3.63;;;3.33;;
7289;SDS011;63176;52.678;13.250;2023-04-24T04:04:10;4.53;;;3.90;;
7289;SDS011;63176;52.678;13.250;2023-04-24T04:06:35;5.97;;;3.77;;
7289;SDS011;63176;52.678;13.250;2023-04-24T04:09:02;4.97;;;3.70;;
7289;SDS011;63176;52.678;13.250;2023-04-24T04:11:28;5.55;;;4.50;;
7289;SDS011;63176;52.678;13.250;2023-04-24T04:13:54;4.77;;;3.63;;
7289;SDS011;63176;52.678;13.250;2023-04-24T04:16:20;5.57;;;3.93;;
7289;SDS011;63176;52.678;13.250;2023-04-24T04:18:46;4.20;;;3.70;;
7289;SDS011;63176;52.678;13.250;2023-04-24T04:21:11;4.50;;;3.80;;
7289;SDS011;63176;52.678;13.250;2023-04-24T04:23:37;5.03;;;4.00;;
7289;SDS011;63176;52.678;13.250;2023-04-24T04:26:03;5.13;;;4.40;;
7289;SDS011;63176;52.678;13.250;2023-04-24T04:28:29;5.13;;;3.72;;
7289;SDS011;63176;52.678;13.250;2023-04-24T04:30:56;4.10;;;3.75;;
7289;SDS011;63176;52.678;13.250;2023-04-24T04:33:22;5.43;;;3.83;;
7289;SDS011;63176;52.678;13.250;2023-04-24T04:35:51;4.85;;;3.25;;
7289;SDS011;63176;52.678;13.250;2023-04-24T04:38:20;7.57;;;4.60;;
7289;SDS011;63176;52.678;13.250;2023-04-24T04:40:46;5.13;;;4.10;;
7289;SDS011;63176;52.678;13.250;2023-04-24T04:43:12;3.70;;;3.40;;
7289;SDS011;63176;52.678;13.250;2023-04-24T04:45:41;3.47;;;3.10;;
7289;SDS011;63176;52.678;13.250;2023-04-24T04:48:08;3.47;;;3.17;;
7289;SDS011;63176;52.678;13.250;2023-04-24T04:50:34;4.03;;;3.45;;
7289;SDS011;63176;52.678;13.250;2023-04-24T04:53:00;3.30;;;3.00;;
7289;SDS011;63176;52.678;13.250;2023-04-24T04:55:26;3.40;;;3.10;;
7289;SDS011;63176;52.678;13.250;2023-04-24T04:57:52;4.80;;;4.10;;
7289;SDS011;63176;52.678;13.250;2023-04-24T05:00:17;6.50;;;4.27;;
7289;SDS011;63176;52.678;13.250;2023-04-24T05:02:44;3.97;;;3.25;;
7289;SDS011;63176;52.678;13.250;2023-04-24T05:05:09;3.57;;;2.90;;
7289;SDS011;63176;52.678;13.250;2023-04-24T05:07:35;4.90;;;2.67;;
7289;SDS011;63176;52.678;13.250;2023-04-24T05:10:01;2.83;;;2.50;;
7289;SDS011;63176;52.678;13.250;2023-04-24T05:12:26;4.10;;;3.17;;
7289;SDS011;63176;52.678;13.250;2023-04-24T05:14:52;3.80;;;2.87;;
7289;SDS011;63176;52.678;13.250;2023-04-24T05:17:18;3.07;;;2.83;;
7289;SDS011;63176;52.678;13.250;2023-04-24T05:19:43;2.73;;;2.53;;
7289;SDS011;63176;52.678;13.250;2023-04-24T05:22:09;5.47;;;2.90;;
7289;SDS011;63176;52.678;13.250;2023-04-24T05:24:36;3.88;;;2.85;;
7289;SDS011;63176;52.678;13.250;2023-04-24T05:27:02;2.90;;;2.57;;
7289;SDS011;63176;52.678;13.250;2023-04-24T05:29:29;3.40;;;2.55;;
7289;SDS011;63176;52.678;13.250;2023-04-24T05:31:58;2.93;;;2.70;;
7289;SDS011;63176;52.678;13.250;2023-04-24T05:34:25;3.30;;;2.60;;
7289;SDS011;63176;52.678;13.250;2023-04-24T05:36:50;2.60;;;2.40;;
7289;SDS011;63176;52.678;13.250;2023-04-24T05:39:16;3.23;;;2.50;;
7289;SDS011;63176;52.678;13.250;2023-04-24T05:41:42;2.87;;;2.37;;
7289;SDS011;63176;52.678;13.250;2023-04-24T05:44:08;2.63;;;2.37;;
7289;SDS011;63176;52.678;13.250;2023-04-24T05:46:34;2.90;;;2.53;;
7289;SDS011;63176;52.678;13.250;2023-04-24T05:49:00;6.90;;;2.63;;
7289;SDS011;63176;52.678;13.250;2023-04-24T05:51:25;2.97;;;2.23;;
7289;SDS011;63176;52.678;13.250;2023-04-24T05:53:51;2.43;;;2.23;;
7289;SDS011;63176;52.678;13.250;2023-04-24T05:56:17;9.70;;;2.97;;
7289;SDS011;63176;52.678;13.250;2023-04-24T05:58:43;7.05;;;2.45;;
7289;SDS011;63176;52.678;13.250;2023-04-24T06:01:11;2.65;;;2.30;;
7289;SDS011;63176;52.678;13.250;2023-04-24T06:03:37;4.10;;;2.00;;
7289;SDS011;63176;52.678;13.250;2023-04-24T06:06:04;4.43;;;2.10;;
7289;SDS011;63176;52.678;13.250;2023-04-24T06:08:31;3.07;;;1.97;;
7289;SDS011;63176;52.678;13.250;2023-04-24T06:10:56;4.20;;;2.40;;
7289;SDS011;63176;52.678;13.250;2023-04-24T06:13:22;2.20;;;2.00;;
7289;SDS011;63176;52.678;13.250;2023-04-24T06:15:48;3.50;;;1.70;;
7289;SDS011;63176;52.678;13.250;2023-04-24T06:18:13;2.80;;;1.77;;
7289;SDS011;63176;52.678;13.250;2023-04-24T06:20:39;1.30;;;1.03;;
7289;SDS011;63176;52.678;13.250;2023-04-24T06:23:05;1.73;;;1.20;;
7289;SDS011;63176;52.678;13.250;2023-04-24T06:25:30;2.00;;;1.80;;
7289;SDS011;63176;52.678;13.250;2023-04-24T06:27:56;1.83;;;1.53;;
7289;SDS011;63176;52.678;13.250;2023-04-24T06:30:22;2.13;;;1.17;;
7289;SDS011;63176;52.678;13.250;2023-04-24T06:32:48;1.40;;;1.30;;
7289;SDS011;63176;52.678;13.250;2023-04-24T06:35:13;0.83;;;0.77;;
7289;SDS011;63176;52.678;13.250;2023-04-24T06:37:42;1.10;;;1.00;;
7289;SDS011;63176;52.678;13.250;2023-04-24T06:40:08;3.08;;;1.33;;
7289;SDS011;63176;52.678;13.250;2023-04-24T06:42:35;0.98;;;0.90;;
7289;SDS011;63176;52.678;13.250;2023-04-24T06:45:01;1.40;;;0.87;;
7289;SDS011;63176;52.678;13.250;2023-04-24T06:47:27;2.17;;;1.35;;
7289;SDS011;63176;52.678;13.250;2023-04-24T06:49:52;1.53;;;1.03;;
7289;SDS011;63176;52.678;13.250;2023-04-24T06:52:18;3.40;;;0.90;;
7289;SDS011;63176;52.678;13.250;2023-04-24T06:54:44;0.80;;;0.70;;
7289;SDS011;63176;52.678;13.250;2023-04-24T06:57:10;0.90;;;0.80;;
7289;SDS011;63176;52.678;13.250;2023-04-24T06:59:36;1.10;;;1.00;;
7289;SDS011;63176;52.678;13.250;2023-04-24T07:02:02;1.20;;;1.10;;
7289;SDS011;63176;52.678;13.250;2023-04-24T07:04:28;1.77;;;0.90;;
7289;SDS011;63176;52.678;13.250;2023-04-24T07:06:54;1.07;;;0.93;;
7289;SDS011;63176;52.678;13.250;2023-04-24T07:09:21;0.90;;;0.90;;
7289;SDS011;63176;52.678;13.250;2023-04-24T07:11:48;1.00;;;0.77;;
7289;SDS011;63176;52.678;13.250;2023-04-24T07:14:14;1.10;;;0.90;;
7289;SDS011;63176;52.678;13.250;2023-04-24T07:16:40;1.17;;;0.83;;
7289;SDS011;63176;52.678;13.250;2023-04-24T07:19:06;1.47;;;0.83;;
7289;SDS011;63176;52.678;13.250;2023-04-24T07:21:32;1.00;;;0.67;;
7289;SDS011;63176;52.678;13.250;2023-04-24T07:23:58;0.90;;;0.80;;
7289;SDS011;63176;52.678;13.250;2023-04-24T07:26:24;0.77;;;0.70;;
7289;SDS011;63176;52.678;13.250;2023-04-24T07:28:50;0.80;;;0.80;;
7289;SDS011;63176;52.678;13.250;2023-04-24T07:31:16;0.60;;;0.47;;
7289;SDS011;63176;52.678;13.250;2023-04-24T07:33:42;0.60;;;0.60;;
7289;SDS011;63176;52.678;13.250;2023-04-24T07:36:07;1.00;;;0.60;;
7289;SDS011;63176;52.678;13.250;2023-04-24T07:38:33;0.70;;;0.53;;
7289;SDS011;63176;52.678;13.250;2023-04-24T07:40:58;1.30;;;0.80;;
7289;SDS011;63176;52.678;13.250;2023-04-24T07:43:24;0.70;;;0.67;;
7289;SDS011;63176;52.678;13.250;2023-04-24T07:45:50;0.60;;;0.60;;
7289;SDS011;63176;52.678;13.250;2023-04-24T07:48:16;0.50;;;0.50;;
7289;SDS011;63176;52.678;13.250;2023-04-24T07:50:42;0.50;;;0.50;;
7289;SDS011;63176;52.678;13.250;2023-04-24T07:53:09;0.50;;;0.43;;
7289;SDS011;63176;52.678;13.250;2023-04-24T07:55:34;0.60;;;0.60;;
7289;SDS011;63176;52.678;13.250;2023-04-24T07:58:00;0.50;;;0.50;;
7289;SDS011;63176;52.678;13.250;2023-04-24T08:00:26;0.60;;;0.60;;
7289;SDS011;63176;52.678;13.250;2023-04-24T08:02:51;0.67;;;0.67;;
7289;SDS011;63176;52.678;13.250;2023-04-24T08:05:17;3.83;;;0.77;;
7289;SDS011;63176;52.678;13.250;2023-04-24T08:07:43;1.53;;;0.60;;
7289;SDS011;63176;52.678;13.250;2023-04-24T08:10:11;0.40;;;0.40;;
7289;SDS011;63176;52.678;13.250;2023-04-24T08:12:37;0.50;;;0.50;;
7289;SDS011;63176;52.678;13.250;2023-04-24T08:15:03;0.60;;;0.50;;
7289;SDS011;63176;52.678;13.250;2023-04-24T08:17:30;1.00;;;0.53;;
7289;SDS011;63176;52.678;13.250;2023-04-24T08:19:56;0.40;;;0.30;;
7289;SDS011;63176;52.678;13.250;2023-04-24T08:22:26;0.70;;;0.50;;
7289;SDS011;63176;52.678;13.250;2023-04-24T08:24:53;3.40;;;0.50;;
7289;SDS011;63176;52.678;13.250;2023-04-24T08:27:19;1.23;;;0.80;;
7289;SDS011;63176;52.678;13.250;2023-04-24T08:29:45;0.53;;;0.50;;
7289;SDS011;63176;52.678;13.250;2023-04-24T08:32:10;2.00;;;0.50;;
7289;SDS011;63176;52.678;13.250;2023-04-24T08:34:36;0.50;;;0.40;;
7289;SDS011;63176;52.678;13.250;2023-04-24T08:37:02;0.60;;;0.50;;
7289;SDS011;63176;52.678;13.250;2023-04-24T08:39:28;0.60;;;0.50;;
7289;SDS011;63176;52.678;13.250;2023-04-24T08:41:54;0.83;;;0.50;;
7289;SDS011;63176;52.678;13.250;2023-04-24T08:44:20;0.50;;;0.50;;
7289;SDS011;63176;52.678;13.250;2023-04-24T08:46:47;0.60;;;0.60;;
7289;SDS011;63176;52.678;13.250;2023-04-24T08:49:14;0.60;;;0.57;;
7289;SDS011;63176;52.678;13.250;2023-04-24T08:51:43;0.73;;;0.67;;
7289;SDS011;63176;52.678;13.250;2023-04-24T08:54:11;0.70;;;0.67;;
7289;SDS011;63176;52.678;13.250;2023-04-24T08:56:38;1.27;;;0.60;;
7289;SDS011;63176;52.678;13.250;2023-04-24T08:59:05;0.50;;;0.50;;
7289;SDS011;63176;52.678;13.250;2023-04-24T09:01:32;1.00;;;0.70;;
7289;SDS011;63176;52.678;13.250;2023-04-24T09:03:59;0.50;;;0.50;;
7289;SDS011;63176;52.678;13.250;2023-04-24T09:06:29;1.83;;;0.60;;
7289;SDS011;63176;52.678;13.250;2023-04-24T09:08:57;2.57;;;0.70;;
7289;SDS011;63176;52.678;13.250;2023-04-24T09:11:26;0.50;;;0.50;;
7289;SDS011;63176;52.678;13.250;2023-04-24T09:13:53;1.90;;;0.60;;
7289;SDS011;63176;52.678;13.250;2023-04-24T09:16:20;0.90;;;0.47;;
7289;SDS011;63176;52.678;13.250;2023-04-24T09:18:48;0.70;;;0.60;;
7289;SDS011;63176;52.678;13.250;2023-04-24T09:21:13;0.53;;;0.50;;
7289;SDS011;63176;52.678;13.250;2023-04-24T09:23:40;0.70;;;0.50;;
7289;SDS011;63176;52.678;13.250;2023-04-24T09:26:06;0.90;;;0.60;;
7289;SDS011;63176;52.678;13.250;2023-04-24T09:28:37;0.67;;;0.60;;
7289;SDS011;63176;52.678;13.250;2023-04-24T09:31:14;0.67;;;0.60;;
7289;SDS011;63176;52.678;13.250;2023-04-24T09:36:32;1.60;;;0.40;;
7289;SDS011;63176;52.678;13.250;2023-04-24T09:38:59;0.60;;;0.60;;
7289;SDS011;63176;52.678;13.250;2023-04-24T09:41:25;0.60;;;0.57;;
7289;SDS011;63176;52.678;13.250;2023-04-24T09:43:56;0.70;;;0.70;;
7289;SDS011;63176;52.678;13.250;2023-04-24T09:46:29;0.67;;;0.40;;
7289;SDS011;63176;52.678;13.250;2023-04-24T09:48:56;0.73;;;0.73;;
7289;SDS011;63176;52.678;13.250;2023-04-24T09:51:35;0.40;;;0.40;;
7289;SDS011;63176;52.678;13.250;2023-04-24T09:54:02;1.73;;;0.70;;
7289;SDS011;63176;52.678;13.250;2023-04-24T09:56:29;1.57;;;0.70;;
7289;SDS011;63176;52.678;13.250;2023-04-24T09:59:05;1.63;;;0.80;;
7289;SDS011;63176;52.678;13.250;2023-04-24T10:01:31;1.07;;;0.73;;
7289;SDS011;63176;52.678;13.250;2023-04-24T10:03:57;1.17;;;0.50;;
7289;SDS011;63176;52.678;13.250;2023-04-24T10:06:23;1.07;;;0.60;;
7289;SDS011;63176;52.678;13.250;2023-04-24T10:08:57;0.90;;;0.60;;
7289;SDS011;63176;52.678;13.250;2023-04-24T10:11:26;0.60;;;0.60;;
7289;SDS011;63176;52.678;13.250;2023-04-24T10:13:52;1.13;;;0.50;;
7289;SDS011;63176;52.678;13.250;2023-04-24T10:16:18;1.00;;;0.90;;
7289;SDS011;63176;52.678;13.250;2023-04-24T10:18:46;1.83;;;1.37;;
7289;SDS011;63176;52.678;13.250;2023-04-24T10:21:14;1.03;;;0.60;;
7289;SDS011;63176;52.678;13.250;2023-04-24T10:23:40;0.97;;;0.50;;
7289;SDS011;63176;52.678;13.250;2023-04-24T10:26:08;1.63;;;0.60;;
7289;SDS011;63176;52.678;13.250;2023-04-24T10:28:36;0.80;;;0.53;;
7289;SDS011;63176;52.678;13.250;2023-04-24T10:31:01;0.70;;;0.70;;
7289;SDS011;63176;52.678;13.250;2023-04-24T10:33:28;0.70;;;0.60;;
7289;SDS011;63176;52.678;13.250;2023-04-24T10:35:55;1.23;;;0.70;;
7289;SDS011;63176;52.678;13.250;2023-04-24T10:38:24;0.97;;;0.87;;
7289;SDS011;63176;52.678;13.250;2023-04-24T10:40:56;0.80;;;0.73;;
7289;SDS011;63176;52.678;13.250;2023-04-24T10:43:31;1.03;;;0.90;;
7289;SDS011;63176;52.678;13.250;2023-04-24T10:46:02;2.20;;;1.00;;
7289;SDS011;63176;52.678;13.250;2023-04-24T10:48:29;0.60;;;0.60;;
7289;SDS011;63176;52.678;13.250;2023-04-24T10:50:55;1.00;;;0.97;;
7289;SDS011;63176;52.678;13.250;2023-04-24T10:53:21;1.33;;;0.80;;
7289;SDS011;63176;52.678;13.250;2023-04-24T10:58:45;2.70;;;1.07;;
7289;SDS011;63176;52.678;13.250;2023-04-24T11:01:24;0.63;;;0.57;;
7289;SDS011;63176;52.678;13.250;2023-04-24T11:03:54;0.63;;;0.50;;
7289;SDS011;63176;52.678;13.250;2023-04-24T11:06:42;0.60;;;0.60;;
7289;SDS011;63176;52.678;13.250;2023-04-24T11:09:09;2.10;;;0.60;;
7289;SDS011;63176;52.678;13.250;2023-04-24T11:11:44;0.60;;;0.60;;
7289;SDS011;63176;52.678;13.250;2023-04-24T11:14:13;0.77;;;0.67;;
7289;SDS011;63176;52.678;13.250;2023-04-24T11:16:52;2.27;;;0.80;;
7289;SDS011;63176;52.678;13.250;2023-04-24T11:19:22;1.10;;;0.50;;
7289;SDS011;63176;52.678;13.250;2023-04-24T11:24:28;1.47;;;0.63;;
7289;SDS011;63176;52.678;13.250;2023-04-24T11:27:38;0.60;;;0.60;;
7289;SDS011;63176;52.678;13.250;2023-04-24T11:35:02;0.50;;;0.50;;
7289;SDS011;63176;52.678;13.250;2023-04-24T11:37:46;0.57;;;0.40;;
7289;SDS011;63176;52.678;13.250;2023-04-24T11:40:17;0.63;;;0.50;;
7289;SDS011;63176;52.678;13.250;2023-04-24T11:42:49;0.73;;;0.60;;
7289;SDS011;63176;52.678;13.250;2023-04-24T11:45:17;0.70;;;0.50;;
7289;SDS011;63176;52.678;13.250;2023-04-24T11:47:44;0.57;;;0.43;;
7289;SDS011;63176;52.678;13.250;2023-04-24T11:50:11;1.03;;;0.70;;
7289;SDS011;63176;52.678;13.250;2023-04-24T11:52:39;0.90;;;0.70;;
7289;SDS011;63176;52.678;13.250;2023-04-24T11:55:06;0.60;;;0.60;;
7289;SDS011;63176;52.678;13.250;2023-04-24T12:00:15;1.97;;;0.60;;
7289;SDS011;63176;52.678;13.250;2023-04-24T12:02:45;0.60;;;0.60;;
7289;SDS011;63176;52.678;13.250;2023-04-24T12:05:24;0.50;;;0.50;;
7289;SDS011;63176;52.678;13.250;2023-04-24T12:07:51;0.60;;;0.50;;
7289;SDS011;63176;52.678;13.250;2023-04-24T12:10:24;0.50;;;0.40;;
7289;SDS011;63176;52.678;13.250;2023-04-24T12:12:51;0.87;;;0.47;;
7289;SDS011;63176;52.678;13.250;2023-04-24T12:15:20;0.50;;;0.40;;
7289;SDS011;63176;52.678;13.250;2023-04-24T12:17:46;1.57;;;0.50;;
7289;SDS011;63176;52.678;13.250;2023-04-24T12:20:13;3.80;;;0.50;;
7289;SDS011;63176;52.678;13.250;2023-04-24T12:22:58;0.50;;;0.50;;
7289;SDS011;63176;52.678;13.250;2023-04-24T12:25:25;0.63;;;0.50;;
7289;SDS011;63176;52.678;13.250;2023-04-24T12:27:53;0.50;;;0.47;;
7289;SDS011;63176;52.678;13.250;2023-04-24T12:30:28;0.60;;;0.60;;
7289;SDS011;63176;52.678;13.250;2023-04-24T12:32:56;0.70;;;0.60;;
7289;SDS011;63176;52.678;13.250;2023-04-24T12:35:23;0.67;;;0.53;;
7289;SDS011;63176;52.678;13.250;2023-04-24T12:37:50;0.40;;;0.40;;
7289;SDS011;63176;52.678;13.250;2023-04-24T12:40:16;0.80;;;0.40;;
7289;SDS011;63176;52.678;13.250;2023-04-24T12:42:43;3.60;;;0.70;;
7289;SDS011;63176;52.678;13.250;2023-04-24T12:45:10;0.60;;;0.50;;
7289;SDS011;63176;52.678;13.250;2023-04-24T12:47:37;0.70;;;0.60;;
7289;SDS011;63176;52.678;13.250;2023-04-24T12:50:04;0.97;;;0.50;;
7289;SDS011;63176;52.678;13.250;2023-04-24T12:52:31;0.83;;;0.70;;
7289;SDS011;63176;52.678;13.250;2023-04-24T12:54:57;0.80;;;0.60;;
7289;SDS011;63176;52.678;13.250;2023-04-24T12:57:26;0.80;;;0.50;;
7289;SDS011;63176;52.678;13.250;2023-04-24T12:59:56;2.60;;;0.50;;
7289;SDS011;63176;52.678;13.250;2023-04-24T13:02:23;1.10;;;0.50;;
7289;SDS011;63176;52.678;13.250;2023-04-24T13:04:50;2.70;;;0.60;;
7289;SDS011;63176;52.678;13.250;2023-04-24T13:07:16;0.60;;;0.60;;
7289;SDS011;63176;52.678;13.250;2023-04-24T13:09:43;3.57;;;0.60;;
7289;SDS011;63176;52.678;13.250;2023-04-24T13:12:09;3.33;;;0.70;;
7289;SDS011;63176;52.678;13.250;2023-04-24T13:14:36;1.17;;;0.60;;
7289;SDS011;63176;52.678;13.250;2023-04-24T13:17:02;0.50;;;0.40;;
7289;SDS011;63176;52.678;13.250;2023-04-24T13:19:28;0.70;;;0.70;;
7289;SDS011;63176;52.678;13.250;2023-04-24T13:21:55;1.10;;;0.60;;
7289;SDS011;63176;52.678;13.250;2023-04-24T13:24:22;1.60;;;0.70;;
7289;SDS011;63176;52.678;13.250;2023-04-24T13:26:54;1.80;;;0.60;;
7289;SDS011;63176;52.678;13.250;2023-04-24T13:29:21;1.30;;;0.70;;
7289;SDS011;63176;52.678;13.250;2023-04-24T13:31:49;0.67;;;0.60;;
7289;SDS011;63176;52.678;13.250;2023-04-24T13:34:16;0.67;;;0.67;;
7289;SDS011;63176;52.678;13.250;2023-04-24T13:36:42;0.80;;;0.70;;
7289;SDS011;63176;52.678;13.250;2023-04-24T13:39:07;1.50;;;0.80;;
7289;SDS011;63176;52.678;13.250;2023-04-24T13:41:33;1.23;;;0.60;;
7289;SDS011;63176;52.678;13.250;2023-04-24T13:44:00;1.93;;;0.67;;
7289;SDS011;63176;52.678;13.250;2023-04-24T13:46:26;0.70;;;0.70;;
7289;SDS011;63176;52.678;13.250;2023-04-24T13:48:51;0.70;;;0.70;;
7289;SDS011;63176;52.678;13.250;2023-04-24T13:51:17;0.97;;;0.60;;
7289;SDS011;63176;52.678;13.250;2023-04-24T13:53:43;0.60;;;0.50;;
7289;SDS011;63176;52.678;13.250;2023-04-24T13:56:08;0.60;;;0.60;;
7289;SDS011;63176;52.678;13.250;2023-04-24T13:58:35;0.67;;;0.67;;
7289;SDS011;63176;52.678;13.250;2023-04-24T14:01:03;0.97;;;0.90;;
7289;SDS011;63176;52.678;13.250;2023-04-24T14:03:29;0.80;;;0.77;;
7289;SDS011;63176;52.678;13.250;2023-04-24T14:05:55;0.77;;;0.73;;
7289;SDS011;63176;52.678;13.250;2023-04-24T14:08:21;1.10;;;0.67;;
7289;SDS011;63176;52.678;13.250;2023-04-24T14:10:47;0.70;;;0.70;;
7289;SDS011;63176;52.678;13.250;2023-04-24T14:13:12;0.90;;;0.80;;
7289;SDS011;63176;52.678;13.250;2023-04-24T14:15:38;0.97;;;0.50;;
7289;SDS011;63176;52.678;13.250;2023-04-24T14:18:04;1.03;;;0.90;;
7289;SDS011;63176;52.678;13.250;2023-04-24T14:20:30;0.90;;;0.90;;
7289;SDS011;63176;52.678;13.250;2023-04-24T14:22:56;0.73;;;0.73;;
7289;SDS011;63176;52.678;13.250;2023-04-24T14:25:24;1.00;;;0.60;;
7289;SDS011;63176;52.678;13.250;2023-04-24T14:27:50;0.73;;;0.73;;
7289;SDS011;63176;52.678;13.250;2023-04-24T14:30:16;1.23;;;0.70;;
7289;SDS011;63176;52.678;13.250;2023-04-24T14:32:43;1.17;;;0.57;;
7289;SDS011;63176;52.678;13.250;2023-04-24T14:35:09;0.90;;;0.80;;
7289;SDS011;63176;52.678;13.250;2023-04-24T14:37:34;0.50;;;0.50;;
7289;SDS011;63176;52.678;13.250;2023-04-24T14:40:01;1.30;;;0.90;;
7289;SDS011;63176;52.678;13.250;2023-04-24T14:42:26;0.80;;;0.70;;
7289;SDS011;63176;52.678;13.250;2023-04-24T14:44:53;0.83;;;0.60;;
7289;SDS011;63176;52.678;13.250;2023-04-24T14:47:19;0.77;;;0.70;;
7289;SDS011;63176;52.678;13.250;2023-04-24T14:49:46;0.70;;;0.70;;
7289;SDS011;63176;52.678;13.250;2023-04-24T14:52:13;0.60;;;0.60;;
7289;SDS011;63176;52.678;13.250;2023-04-24T14:54:38;0.90;;;0.80;;
7289;SDS011;63176;52.678;13.250;2023-04-24T14:57:04;0.60;;;0.57;;
7289;SDS011;63176;52.678;13.250;2023-04-24T14:59:30;2.23;;;0.70;;
7289;SDS011;63176;52.678;13.250;2023-04-24T15:01:56;3.13;;;0.90;;